sensor_id;sensor_type;location;lat;lon;timestamp;pressure;altitude;pressure_sealevel;temperature;humidity
22389;BME280;11362;48.102;11.620;2023-02-14T00:01:35;96985.81;;;23.00;34.13
22389;BME280;11362;48.102;11.620;2023-02-14T00:04:01;96985.81;;;23.00;33.84
22389;BME280;11362;48.102;11.620;2023-02-14T00:06:27;96985.44;;;23.02;33.80
22389;BME280;11362;48.102;11.620;2023-02-14T00:08:52;96994.56;;;23.02;33.79
22389;BME280;11362;48.102;11.620;2023-02-14T00:11:17;96999.28;;;23.02;33.90
22389;BME280;11362;48.102;11.620;2023-02-14T00:13:43;96996.94;;;23.04;33.67
22389;BME280;11362;48.102;11.620;2023-02-14T00:16:08;96997.34;;;23.02;33.80
22389;BME280;11362;48.102;11.620;2023-02-14T00:18:33;96995.34;;;23.03;33.97
22389;BME280;11362;48.102;11.620;2023-02-14T00:20:59;96987.41;;;23.01;33.88
22389;BME280;11362;48.102;11.620;2023-02-14T00:23:25;96986.25;;;23.02;33.85
22389;BME280;11362;48.102;11.620;2023-02-14T00:25:50;96981.50;;;23.03;33.67
22389;BME280;11362;48.102;11.620;2023-02-14T00:28:15;96985.84;;;23.04;33.75
22389;BME280;11362;48.102;11.620;2023-02-14T00:30:40;96992.56;;;23.03;33.90
22389;BME280;11362;48.102;11.620;2023-02-14T00:33:06;96989.81;;;23.03;33.71
22389;BME280;11362;48.102;11.620;2023-02-14T00:35:31;96989.81;;;23.03;33.93
22389;BME280;11362;48.102;11.620;2023-02-14T00:37:56;96988.63;;;23.04;33.75
22389;BME280;11362;48.102;11.620;2023-02-14T00:40:22;96995.34;;;23.03;33.76
22389;BME280;11362;48.102;11.620;2023-02-14T00:42:47;96998.53;;;23.05;33.79
22389;BME280;11362;48.102;11.620;2023-02-14T00:45:12;96982.66;;;23.02;33.87
22389;BME280;11362;48.102;11.620;2023-02-14T00:47:37;96985.84;;;23.04;33.67
22389;BME280;11362;48.102;11.620;2023-02-14T00:50:03;96996.53;;;23.02;33.78
22389;BME280;11362;48.102;11.620;2023-02-14T00:52:29;96981.84;;;23.01;33.38
22389;BME280;11362;48.102;11.620;2023-02-14T00:54:55;96982.66;;;23.02;33.31
22389;BME280;11362;48.102;11.620;2023-02-14T00:57:20;96989.81;;;23.03;33.45
22389;BME280;11362;48.102;11.620;2023-02-14T00:59:45;96997.69;;;23.01;33.60
22389;BME280;11362;48.102;11.620;2023-02-14T01:02:11;97006.03;;;23.01;33.78
22389;BME280;11362;48.102;11.620;2023-02-14T01:04:36;97003.25;;;23.01;33.78
22389;BME280;11362;48.102;11.620;2023-02-14T01:07:01;96997.69;;;23.01;33.84
22389;BME280;11362;48.102;11.620;2023-02-14T01:09:27;96994.94;;;23.01;33.50
22389;BME280;11362;48.102;11.620;2023-02-14T01:11:52;96999.66;;;23.00;34.08
22389;BME280;11362;48.102;11.620;2023-02-14T01:14:17;96987.41;;;23.01;33.69
22389;BME280;11362;48.102;11.620;2023-02-14T01:16:43;97003.25;;;23.01;33.65
22389;BME280;11362;48.102;11.620;2023-02-14T01:19:08;97000.47;;;23.01;33.83
22389;BME280;11362;48.102;11.620;2023-02-14T01:21:33;96990.56;;;23.00;33.84
22389;BME280;11362;48.102;11.620;2023-02-14T01:24:03;96986.63;;;23.01;33.71
22389;BME280;11362;48.102;11.620;2023-02-14T01:26:29;96992.16;;;23.01;33.95
22389;BME280;11362;48.102;11.620;2023-02-14T01:28:54;96983.03;;;23.00;33.43
22389;BME280;11362;48.102;11.620;2023-02-14T01:31:25;96991.78;;;23.02;33.61
22389;BME280;11362;48.102;11.620;2023-02-14T01:33:52;96999.28;;;23.02;33.73
22389;BME280;11362;48.102;11.620;2023-02-14T01:36:26;97000.91;;;23.03;33.67
22389;BME280;11362;48.102;11.620;2023-02-14T01:38:55;97003.31;;;23.04;33.34
22389;BME280;11362;48.102;11.620;2023-02-14T01:41:22;96998.13;;;23.03;33.26
22389;BME280;11362;48.102;11.620;2023-02-14T01:44:53;97008.44;;;23.02;33.78
22389;BME280;11362;48.102;11.620;2023-02-14T01:46:52;97009.56;;;23.01;33.66
22389;BME280;11362;48.102;11.620;2023-02-14T01:49:23;97005.66;;;23.02;33.56
22389;BME280;11362;48.102;11.620;2023-02-14T01:52:07;97015.13;;;23.01;33.60
22389;BME280;11362;48.102;11.620;2023-02-14T01:54:37;97006.03;;;23.01;33.40
22389;BME280;11362;48.102;11.620;2023-02-14T01:57:08;97005.25;;;23.04;33.24
22389;BME280;11362;48.102;11.620;2023-02-14T01:59:41;97001.25;;;23.01;33.42
22389;BME280;11362;48.102;11.620;2023-02-14T02:02:08;97004.84;;;23.02;33.25
22389;BME280;11362;48.102;11.620;2023-02-14T02:04:37;97008.78;;;23.01;33.19
22389;BME280;11362;48.102;11.620;2023-02-14T02:07:17;97006.81;;;23.01;33.20
22389;BME280;11362;48.102;11.620;2023-02-14T02:09:50;96995.72;;;23.01;33.39
22389;BME280;11362;48.102;11.620;2023-02-14T02:12:17;97006.03;;;23.01;33.34
22389;BME280;11362;48.102;11.620;2023-02-14T02:14:43;97003.59;;;22.99;33.21
22389;BME280;11362;48.102;11.620;2023-02-14T02:39:43;96979.91;;;23.02;32.74
22389;BME280;11362;48.102;11.620;2023-02-14T02:42:25;96981.84;;;23.01;32.66
22389;BME280;11362;48.102;11.620;2023-02-14T02:48:14;96967.22;;;23.01;32.67
22389;BME280;11362;48.102;11.620;2023-02-14T02:50:40;96961.31;;;23.02;32.64
22389;BME280;11362;48.102;11.620;2023-02-14T02:53:17;96966.03;;;23.02;32.52
22389;BME280;11362;48.102;11.620;2023-02-14T02:55:58;96964.44;;;23.01;32.44
22389;BME280;11362;48.102;11.620;2023-02-14T02:58:34;96965.22;;;23.01;32.57
22389;BME280;11362;48.102;11.620;2023-02-14T03:01:05;96976.31;;;23.01;32.42
22389;BME280;11362;48.102;11.620;2023-02-14T03:03:33;96982.66;;;23.02;32.35
22389;BME280;11362;48.102;11.620;2023-02-14T03:06:00;96970.00;;;23.01;32.43
22389;BME280;11362;48.102;11.620;2023-02-14T03:08:26;96967.22;;;23.01;32.36
22389;BME280;11362;48.102;11.620;2023-02-14T03:10:52;96963.63;;;23.00;32.56
22389;BME280;11362;48.102;11.620;2023-02-14T03:13:29;96964.44;;;23.01;32.51
22389;BME280;11362;48.102;11.620;2023-02-14T03:16:15;96957.72;;;23.02;32.43
22389;BME280;11362;48.102;11.620;2023-02-14T03:21:42;96967.22;;;23.01;32.32
22389;BME280;11362;48.102;11.620;2023-02-14T03:27:05;96973.19;;;23.03;32.33
22389;BME280;11362;48.102;11.620;2023-02-14T03:30:02;96964.88;;;23.03;32.22
22389;BME280;11362;48.102;11.620;2023-02-14T03:32:48;96959.31;;;23.03;32.12
22389;BME280;11362;48.102;11.620;2023-02-14T03:35:24;96968.44;;;23.03;32.23
22389;BME280;11362;48.102;11.620;2023-02-14T03:38:10;96968.06;;;23.05;32.32
22389;BME280;11362;48.102;11.620;2023-02-14T03:40:50;96968.88;;;23.05;32.20
22389;BME280;11362;48.102;11.620;2023-02-14T03:43:38;96973.59;;;23.05;32.23
22389;BME280;11362;48.102;11.620;2023-02-14T03:46:07;96978.34;;;23.04;32.33
22389;BME280;11362;48.102;11.620;2023-02-14T03:48:35;96978.34;;;23.04;32.25
22389;BME280;11362;48.102;11.620;2023-02-14T03:51:03;96982.31;;;23.03;31.92
22389;BME280;11362;48.102;11.620;2023-02-14T03:53:32;96979.13;;;23.05;32.32
22389;BME280;11362;48.102;11.620;2023-02-14T03:56:07;96979.94;;;23.05;32.27
22389;BME280;11362;48.102;11.620;2023-02-14T03:58:37;96976.00;;;23.06;32.23
22389;BME280;11362;48.102;11.620;2023-02-14T04:01:15;96974.41;;;23.05;32.13
22389;BME280;11362;48.102;11.620;2023-02-14T04:03:42;96975.22;;;23.06;32.12
22389;BME280;11362;48.102;11.620;2023-02-14T04:06:08;96991.84;;;23.06;32.12
22389;BME280;11362;48.102;11.620;2023-02-14T04:08:33;96987.44;;;23.05;32.12
22389;BME280;11362;48.102;11.620;2023-02-14T04:11:00;96981.91;;;23.05;32.10
22389;BME280;11362;48.102;11.620;2023-02-14T04:13:27;96977.19;;;23.05;32.13
22389;BME280;11362;48.102;11.620;2023-02-14T04:15:52;96977.19;;;23.05;32.17
22389;BME280;11362;48.102;11.620;2023-02-14T04:18:18;96969.69;;;23.06;32.13
22389;BME280;11362;48.102;11.620;2023-02-14T04:20:43;96968.50;;;23.07;32.13
22389;BME280;11362;48.102;11.620;2023-02-14T04:23:08;96974.03;;;23.07;32.10
22389;BME280;11362;48.102;11.620;2023-02-14T04:25:34;96970.47;;;23.06;32.07
22389;BME280;11362;48.102;11.620;2023-02-14T04:27:59;96974.03;;;23.07;32.08
22389;BME280;11362;48.102;11.620;2023-02-14T04:30:24;96962.97;;;23.07;32.04
22389;BME280;11362;48.102;11.620;2023-02-14T04:32:49;96962.16;;;23.06;32.09
22389;BME280;11362;48.102;11.620;2023-02-14T04:35:15;96968.50;;;23.07;32.02
22389;BME280;11362;48.102;11.620;2023-02-14T04:37:40;96968.50;;;23.07;31.71
22389;BME280;11362;48.102;11.620;2023-02-14T04:40:06;96965.72;;;23.07;32.03
22389;BME280;11362;48.102;11.620;2023-02-14T04:42:31;96966.91;;;23.06;31.89
22389;BME280;11362;48.102;11.620;2023-02-14T04:44:57;96965.72;;;23.07;31.91
22389;BME280;11362;48.102;11.620;2023-02-14T04:47:22;96962.97;;;23.07;31.91
22389;BME280;11362;48.102;11.620;2023-02-14T04:49:47;96957.41;;;23.07;31.79
22389;BME280;11362;48.102;11.620;2023-02-14T04:52:14;96960.19;;;23.07;31.93
22389;BME280;11362;48.102;11.620;2023-02-14T04:54:39;96944.72;;;23.06;31.81
22389;BME280;11362;48.102;11.620;2023-02-14T04:57:04;96951.06;;;23.06;31.85
22389;BME280;11362;48.102;11.620;2023-02-14T04:59:30;96955.81;;;23.06;31.85
22389;BME280;11362;48.102;11.620;2023-02-14T05:01:55;96950.28;;;23.06;31.79
22389;BME280;11362;48.102;11.620;2023-02-14T05:04:20;96946.31;;;23.07;31.96
22389;BME280;11362;48.102;11.620;2023-02-14T05:06:46;96946.31;;;23.07;31.87
22389;BME280;11362;48.102;11.620;2023-02-14T05:09:11;96934.44;;;23.06;31.79
22389;BME280;11362;48.102;11.620;2023-02-14T05:11:36;96923.34;;;23.06;31.70
22389;BME280;11362;48.102;11.620;2023-02-14T05:14:02;96932.88;;;23.09;31.87
22389;BME280;11362;48.102;11.620;2023-02-14T05:16:27;96935.66;;;23.09;31.51
22389;BME280;11362;48.102;11.620;2023-02-14T05:18:52;96935.66;;;23.09;31.64
22389;BME280;11362;48.102;11.620;2023-02-14T05:21:18;96939.25;;;23.09;31.65
22389;BME280;11362;48.102;11.620;2023-02-14T05:23:43;96927.34;;;23.09;31.68
22389;BME280;11362;48.102;11.620;2023-02-14T05:26:08;96928.94;;;23.10;31.65
22389;BME280;11362;48.102;11.620;2023-02-14T05:28:34;96926.16;;;23.10;31.54
22389;BME280;11362;48.102;11.620;2023-02-14T05:30:59;96920.63;;;23.10;31.57
22389;BME280;11362;48.102;11.620;2023-02-14T05:33:25;96932.88;;;23.09;31.45
22389;BME280;11362;48.102;11.620;2023-02-14T05:35:50;96932.06;;;23.08;31.56
22389;BME280;11362;48.102;11.620;2023-02-14T05:38:16;96930.13;;;23.09;31.38
22389;BME280;11362;48.102;11.620;2023-02-14T05:40:42;96938.00;;;23.07;31.50
22389;BME280;11362;48.102;11.620;2023-02-14T05:43:07;96936.84;;;23.08;31.31
22389;BME280;11362;48.102;11.620;2023-02-14T05:45:33;96936.03;;;23.07;31.06
22389;BME280;11362;48.102;11.620;2023-02-14T05:47:58;96936.03;;;23.07;31.44
22389;BME280;11362;48.102;11.620;2023-02-14T05:50:24;96938.44;;;23.09;31.46
22389;BME280;11362;48.102;11.620;2023-02-14T05:52:49;96936.84;;;23.08;31.35
22389;BME280;11362;48.102;11.620;2023-02-14T05:55:14;96939.59;;;23.08;31.37
22389;BME280;11362;48.102;11.620;2023-02-14T05:57:40;96932.06;;;23.08;31.27
22389;BME280;11362;48.102;11.620;2023-02-14T06:00:06;96915.06;;;23.10;31.26
22389;BME280;11362;48.102;11.620;2023-02-14T06:02:32;96917.84;;;23.10;31.30
22389;BME280;11362;48.102;11.620;2023-02-14T06:04:57;96925.75;;;23.08;31.16
22389;BME280;11362;48.102;11.620;2023-02-14T06:07:23;96920.19;;;23.08;31.13
22389;BME280;11362;48.102;11.620;2023-02-14T06:09:48;96924.16;;;23.07;31.21
22389;BME280;11362;48.102;11.620;2023-02-14T06:12:14;96929.69;;;23.07;31.37
22389;BME280;11362;48.102;11.620;2023-02-14T06:14:39;96928.16;;;23.09;32.43
22389;BME280;11362;48.102;11.620;2023-02-14T06:17:04;96919.44;;;23.11;32.04
22389;BME280;11362;48.102;11.620;2023-02-14T06:19:30;96928.56;;;23.11;32.75
22389;BME280;11362;48.102;11.620;2023-02-14T06:21:55;96978.81;;;23.10;31.83
22389;BME280;11362;48.102;11.620;2023-02-14T06:24:20;96953.78;;;23.03;30.50
22389;BME280;11362;48.102;11.620;2023-02-14T06:26:45;96960.84;;;23.00;30.96
22389;BME280;11362;48.102;11.620;2023-02-14T06:29:11;96962.09;;;23.03;31.24
22389;BME280;11362;48.102;11.620;2023-02-14T06:31:36;96964.50;;;23.04;31.76
22389;BME280;11362;48.102;11.620;2023-02-14T06:34:02;96960.19;;;23.07;32.09
22389;BME280;11362;48.102;11.620;2023-02-14T06:36:27;96968.09;;;23.08;32.46
22389;BME280;11362;48.102;11.620;2023-02-14T06:38:53;96969.72;;;23.09;32.83
22389;BME280;11362;48.102;11.620;2023-02-14T06:41:18;96975.34;;;23.13;32.62
22389;BME280;11362;48.102;11.620;2023-02-14T06:43:45;96973.34;;;23.13;32.65
22389;BME280;11362;48.102;11.620;2023-02-14T06:46:11;96920.66;;;23.13;32.56
22389;BME280;11362;48.102;11.620;2023-02-14T06:48:36;96911.56;;;23.13;32.68
22389;BME280;11362;48.102;11.620;2023-02-14T06:51:02;96943.22;;;23.12;32.48
22389;BME280;11362;48.102;11.620;2023-02-14T06:53:28;96938.84;;;23.11;32.57
22389;BME280;11362;48.102;11.620;2023-02-14T06:55:53;96944.78;;;23.09;32.46
22389;BME280;11362;48.102;11.620;2023-02-14T06:58:19;96993.09;;;23.12;32.18
22389;BME280;11362;48.102;11.620;2023-02-14T07:00:45;96996.22;;;23.07;31.27
22389;BME280;11362;48.102;11.620;2023-02-14T07:03:10;96990.56;;;23.00;30.83
22389;BME280;11362;48.102;11.620;2023-02-14T07:05:36;96953.25;;;22.94;29.55
22389;BME280;11362;48.102;11.620;2023-02-14T07:08:01;96938.56;;;22.93;29.84
22389;BME280;11362;48.102;11.620;2023-02-14T07:10:27;96964.34;;;22.94;30.17
22389;BME280;11362;48.102;11.620;2023-02-14T07:12:52;96964.38;;;22.97;30.66
22389;BME280;11362;48.102;11.620;2023-02-14T07:15:17;96985.03;;;23.00;31.73
22389;BME280;11362;48.102;11.620;2023-02-14T07:17:43;96991.34;;;23.00;31.91
22389;BME280;11362;48.102;11.620;2023-02-14T07:20:09;96980.25;;;23.00;31.53
22389;BME280;11362;48.102;11.620;2023-02-14T07:22:37;96986.09;;;22.92;28.45
22389;BME280;11362;48.102;11.620;2023-02-14T07:25:03;96987.81;;;22.13;24.30
22389;BME280;11362;48.102;11.620;2023-02-14T07:27:29;96990.59;;;19.46;24.75
22389;BME280;11362;48.102;11.620;2023-02-14T07:29:54;96986.25;;;19.45;24.91
22389;BME280;11362;48.102;11.620;2023-02-14T07:32:19;96986.09;;;20.36;25.29
22389;BME280;11362;48.102;11.620;2023-02-14T07:34:45;96982.63;;;21.01;25.02
22389;BME280;11362;48.102;11.620;2023-02-14T07:37:10;96979.09;;;21.39;25.62
22389;BME280;11362;48.102;11.620;2023-02-14T07:39:35;96973.69;;;21.61;25.47
22389;BME280;11362;48.102;11.620;2023-02-14T07:42:00;96962.94;;;21.75;25.92
22389;BME280;11362;48.102;11.620;2023-02-14T07:44:26;96948.09;;;21.83;25.93
22389;BME280;11362;48.102;11.620;2023-02-14T07:46:51;96953.41;;;21.92;26.45
22389;BME280;11362;48.102;11.620;2023-02-14T07:49:16;96937.28;;;21.97;26.42
22389;BME280;11362;48.102;11.620;2023-02-14T07:51:42;96944.50;;;22.02;26.82
22389;BME280;11362;48.102;11.620;2023-02-14T07:54:07;96941.84;;;22.09;27.01
22389;BME280;11362;48.102;11.620;2023-02-14T07:56:32;96933.25;;;22.14;27.65
22389;BME280;11362;48.102;11.620;2023-02-14T07:58:58;96930.16;;;22.19;27.63
22389;BME280;11362;48.102;11.620;2023-02-14T08:01:23;96935.41;;;22.24;27.62
22389;BME280;11362;48.102;11.620;2023-02-14T08:03:49;96926.81;;;22.29;27.83
22389;BME280;11362;48.102;11.620;2023-02-14T08:06:16;96924.09;;;22.32;27.85
22389;BME280;11362;48.102;11.620;2023-02-14T08:08:41;96923.81;;;22.37;27.99
22389;BME280;11362;48.102;11.620;2023-02-14T08:11:06;96919.94;;;22.42;28.05
22389;BME280;11362;48.102;11.620;2023-02-14T08:13:32;96918.47;;;22.48;28.00
22389;BME280;11362;48.102;11.620;2023-02-14T08:15:58;96917.72;;;22.51;28.20
22389;BME280;11362;48.102;11.620;2023-02-14T08:18:23;96920.91;;;22.53;28.36
22389;BME280;11362;48.102;11.620;2023-02-14T08:20:48;96915.78;;;22.55;28.35
22389;BME280;11362;48.102;11.620;2023-02-14T08:23:14;96917.84;;;22.58;28.61
22389;BME280;11362;48.102;11.620;2023-02-14T08:25:40;96914.72;;;22.59;28.70
22389;BME280;11362;48.102;11.620;2023-02-14T08:28:06;96902.06;;;22.62;29.00
22389;BME280;11362;48.102;11.620;2023-02-14T08:30:32;96906.88;;;22.65;28.89
22389;BME280;11362;48.102;11.620;2023-02-14T08:32:59;96904.94;;;22.69;29.13
22389;BME280;11362;48.102;11.620;2023-02-14T08:35:25;96899.03;;;22.70;29.26
22389;BME280;11362;48.102;11.620;2023-02-14T08:37:50;96916.09;;;22.72;29.46
22389;BME280;11362;48.102;11.620;2023-02-14T08:40:15;96922.06;;;22.74;29.08
22389;BME280;11362;48.102;11.620;2023-02-14T08:42:41;96918.91;;;22.76;29.45
22389;BME280;11362;48.102;11.620;2023-02-14T08:45:06;96919.72;;;22.76;29.50
22389;BME280;11362;48.102;11.620;2023-02-14T08:47:32;96924.50;;;22.79;29.35
22389;BME280;11362;48.102;11.620;2023-02-14T08:49:57;96932.44;;;22.81;29.60
22389;BME280;11362;48.102;11.620;2023-02-14T08:52:23;96932.88;;;22.83;29.43
22389;BME280;11362;48.102;11.620;2023-02-14T08:54:48;96929.38;;;22.86;29.54
22389;BME280;11362;48.102;11.620;2023-02-14T08:57:13;96928.19;;;22.87;29.56
22389;BME280;11362;48.102;11.620;2023-02-14T08:59:38;96936.94;;;22.89;29.86
22389;BME280;11362;48.102;11.620;2023-02-14T09:02:04;96936.56;;;22.90;29.71
22389;BME280;11362;48.102;11.620;2023-02-14T09:04:29;96935.81;;;22.93;29.52
22389;BME280;11362;48.102;11.620;2023-02-14T09:06:54;96933.50;;;22.95;29.51
22389;BME280;11362;48.102;11.620;2023-02-14T09:09:19;96944.63;;;22.99;29.35
22389;BME280;11362;48.102;11.620;2023-02-14T09:11:45;96943.44;;;23.00;29.68
22389;BME280;11362;48.102;11.620;2023-02-14T09:14:10;96943.88;;;23.02;29.79
22389;BME280;11362;48.102;11.620;2023-02-14T09:16:35;96941.50;;;23.04;29.82
22389;BME280;11362;48.102;11.620;2023-02-14T09:19:01;96942.38;;;23.08;29.74
22389;BME280;11362;48.102;11.620;2023-02-14T09:21:27;96935.28;;;23.10;30.09
22389;BME280;11362;48.102;11.620;2023-02-14T09:23:53;96928.16;;;23.09;30.15
22389;BME280;11362;48.102;11.620;2023-02-14T09:26:19;96934.13;;;23.11;30.40
22389;BME280;11362;48.102;11.620;2023-02-14T09:28:44;96926.59;;;23.12;30.23
22389;BME280;11362;48.102;11.620;2023-02-14T09:31:18;96920.31;;;23.15;30.39
22389;BME280;11362;48.102;11.620;2023-02-14T09:33:45;96928.28;;;23.16;30.51
22389;BME280;11362;48.102;11.620;2023-02-14T09:36:11;96930.66;;;23.18;30.32
22389;BME280;11362;48.102;11.620;2023-02-14T09:38:36;96933.06;;;23.19;30.49
22389;BME280;11362;48.102;11.620;2023-02-14T09:41:09;96930.72;;;23.21;30.26
22389;BME280;11362;48.102;11.620;2023-02-14T09:43:38;96933.13;;;23.23;30.47
22389;BME280;11362;48.102;11.620;2023-02-14T09:46:08;96926.75;;;23.22;30.59
22389;BME280;11362;48.102;11.620;2023-02-14T09:48:37;96931.13;;;23.23;30.63
22389;BME280;11362;48.102;11.620;2023-02-14T09:51:09;96924.81;;;23.23;30.96
22389;BME280;11362;48.102;11.620;2023-02-14T09:53:51;96925.22;;;23.25;31.05
22389;BME280;11362;48.102;11.620;2023-02-14T09:56:26;96930.41;;;23.26;31.09
22389;BME280;11362;48.102;11.620;2023-02-14T09:59:11;96919.34;;;23.30;31.06
22389;BME280;11362;48.102;11.620;2023-02-14T10:01:43;96927.34;;;23.35;31.12
22389;BME280;11362;48.102;11.620;2023-02-14T10:04:27;96909.13;;;23.37;31.28
22389;BME280;11362;48.102;11.620;2023-02-14T10:07:17;96923.81;;;23.38;31.24
22389;BME280;11362;48.102;11.620;2023-02-14T10:12:43;96919.13;;;23.42;31.54
22389;BME280;11362;48.102;11.620;2023-02-14T10:15:18;96912.81;;;23.44;31.48
22389;BME280;11362;48.102;11.620;2023-02-14T10:17:48;96916.00;;;23.46;31.57
22389;BME280;11362;48.102;11.620;2023-02-14T10:20:25;96906.13;;;23.49;31.54
22389;BME280;11362;48.102;11.620;2023-02-14T10:22:58;96904.59;;;23.51;31.46
22389;BME280;11362;48.102;11.620;2023-02-14T10:25:38;96907.41;;;23.55;31.40
22389;BME280;11362;48.102;11.620;2023-02-14T10:28:08;96896.34;;;23.58;31.30
22389;BME280;11362;48.102;11.620;2023-02-14T10:30:38;96901.53;;;23.60;31.24
22389;BME280;11362;48.102;11.620;2023-02-14T10:33:26;96899.63;;;23.67;31.10
22389;BME280;11362;48.102;11.620;2023-02-14T10:36:03;96902.44;;;23.71;31.10
22389;BME280;11362;48.102;11.620;2023-02-14T10:38:42;96900.88;;;23.73;31.17
22389;BME280;11362;48.102;11.620;2023-02-14T10:41:24;96892.56;;;23.73;31.11
22389;BME280;11362;48.102;11.620;2023-02-14T10:46:37;96867.25;;;23.78;31.14
22389;BME280;11362;48.102;11.620;2023-02-14T10:54:41;96880.78;;;23.83;31.16
22389;BME280;11362;48.102;11.620;2023-02-14T10:57:29;96877.28;;;23.86;31.44
22389;BME280;11362;48.102;11.620;2023-02-14T10:59:56;96868.56;;;23.88;31.08
22389;BME280;11362;48.102;11.620;2023-02-14T11:02:37;96869.41;;;23.92;31.55
22389;BME280;11362;48.102;11.620;2023-02-14T11:05:04;96866.25;;;23.93;31.21
22389;BME280;11362;48.102;11.620;2023-02-14T11:07:30;96863.47;;;23.93;31.19
22389;BME280;11362;48.102;11.620;2023-02-14T11:09:55;96859.53;;;23.94;31.24
22389;BME280;11362;48.102;11.620;2023-02-14T11:12:40;96859.94;;;23.96;31.27
22389;BME280;11362;48.102;11.620;2023-02-14T11:17:35;96849.66;;;24.00;31.36
22389;BME280;11362;48.102;11.620;2023-02-14T11:20:12;96853.22;;;24.01;31.35
22389;BME280;11362;48.102;11.620;2023-02-14T11:22:45;96846.94;;;24.04;31.32
22389;BME280;11362;48.102;11.620;2023-02-14T11:25:25;96840.97;;;24.05;31.19
22389;BME280;11362;48.102;11.620;2023-02-14T11:28:02;96837.44;;;24.08;31.22
22389;BME280;11362;48.102;11.620;2023-02-14T11:30:39;96825.16;;;24.09;31.46
22389;BME280;11362;48.102;11.620;2023-02-14T11:33:06;96820.00;;;24.11;31.44
22389;BME280;11362;48.102;11.620;2023-02-14T11:35:34;96821.19;;;24.10;31.33
22389;BME280;11362;48.102;11.620;2023-02-14T11:38:02;96812.09;;;24.10;31.42
22389;BME280;11362;48.102;11.620;2023-02-14T11:43:25;96843.41;;;24.10;31.27
22389;BME280;11362;48.102;11.620;2023-02-14T11:46:04;96808.50;;;24.09;30.89
22389;BME280;11362;48.102;11.620;2023-02-14T11:48:30;96835.03;;;24.07;30.32
22389;BME280;11362;48.102;11.620;2023-02-14T11:50:58;96803.25;;;24.01;29.80
22389;BME280;11362;48.102;11.620;2023-02-14T11:53:38;96800.84;;;23.96;29.87
22389;BME280;11362;48.102;11.620;2023-02-14T11:56:04;96796.09;;;23.96;29.79
22389;BME280;11362;48.102;11.620;2023-02-14T11:58:30;96792.13;;;23.97;30.01
22389;BME280;11362;48.102;11.620;2023-02-14T12:00:57;96787.00;;;23.99;29.93
22389;BME280;11362;48.102;11.620;2023-02-14T12:03:25;96787.41;;;24.01;29.94
22389;BME280;11362;48.102;11.620;2023-02-14T12:05:52;96787.81;;;24.03;30.01
22389;BME280;11362;48.102;11.620;2023-02-14T12:08:23;96785.03;;;24.03;30.01
22389;BME280;11362;48.102;11.620;2023-02-14T12:11:22;96787.06;;;24.06;30.20
22389;BME280;11362;48.102;11.620;2023-02-14T12:13:56;96769.22;;;24.07;30.17
22389;BME280;11362;48.102;11.620;2023-02-14T12:16:31;96770.44;;;24.10;30.30
22389;BME280;11362;48.102;11.620;2023-02-14T12:19:05;96771.59;;;24.09;30.32
22389;BME280;11362;48.102;11.620;2023-02-14T12:21:43;96774.81;;;24.11;30.35
22389;BME280;11362;48.102;11.620;2023-02-14T12:27:22;96769.28;;;24.14;30.47
22389;BME280;11362;48.102;11.620;2023-02-14T12:29:53;96772.06;;;24.14;30.48
22389;BME280;11362;48.102;11.620;2023-02-14T12:32:25;96774.88;;;24.18;30.48
22389;BME280;11362;48.102;11.620;2023-02-14T12:34:57;96769.31;;;24.18;30.61
22389;BME280;11362;48.102;11.620;2023-02-14T12:37:32;96760.56;;;24.19;30.64
22389;BME280;11362;48.102;11.620;2023-02-14T12:43:33;96754.28;;;24.22;30.70
22389;BME280;11362;48.102;11.620;2023-02-14T12:46:30;96753.47;;;24.25;30.68
22389;BME280;11362;48.102;11.620;2023-02-14T12:52:02;96755.88;;;24.27;30.77
22389;BME280;11362;48.102;11.620;2023-02-14T13:00:17;96719.81;;;24.30;31.12
22389;BME280;11362;48.102;11.620;2023-02-14T13:02:51;96743.63;;;24.31;30.90
22389;BME280;11362;48.102;11.620;2023-02-14T13:05:52;96738.06;;;24.31;30.92
22389;BME280;11362;48.102;11.620;2023-02-14T13:11:14;96730.13;;;24.33;30.87
22389;BME280;11362;48.102;11.620;2023-02-14T13:13:52;96724.19;;;24.35;31.02
22389;BME280;11362;48.102;11.620;2023-02-14T13:16:27;96725.00;;;24.35;31.08
22389;BME280;11362;48.102;11.620;2023-02-14T13:19:03;96723.00;;;24.36;31.08
22389;BME280;11362;48.102;11.620;2023-02-14T13:21:33;96715.88;;;24.38;30.97
22389;BME280;11362;48.102;11.620;2023-02-14T13:24:27;96713.13;;;24.42;30.88
22389;BME280;11362;48.102;11.620;2023-02-14T13:26:58;96709.97;;;24.43;30.84
22389;BME280;11362;48.102;11.620;2023-02-14T13:29:46;96711.56;;;24.44;30.95
22389;BME280;11362;48.102;11.620;2023-02-14T13:32:15;96709.19;;;24.46;30.83
22389;BME280;11362;48.102;11.620;2023-02-14T13:34:44;96705.63;;;24.46;30.92
22389;BME280;11362;48.102;11.620;2023-02-14T13:37:12;96699.66;;;24.47;31.17
22389;BME280;11362;48.102;11.620;2023-02-14T13:39:41;96704.44;;;24.47;31.55
22389;BME280;11362;48.102;11.620;2023-02-14T13:42:08;96704.44;;;24.47;31.67
22389;BME280;11362;48.102;11.620;2023-02-14T13:47:35;96702.47;;;24.51;31.64
22389;BME280;11362;48.102;11.620;2023-02-14T13:50:01;96696.53;;;24.52;31.58
22389;BME280;11362;48.102;11.620;2023-02-14T13:52:44;96699.69;;;24.54;31.40
22389;BME280;11362;48.102;11.620;2023-02-14T13:55:35;96696.91;;;24.54;31.54
22389;BME280;11362;48.102;11.620;2023-02-14T13:58:16;96692.56;;;24.53;31.50
22389;BME280;11362;48.102;11.620;2023-02-14T14:00:46;96691.00;;;24.56;31.44
22389;BME280;11362;48.102;11.620;2023-02-14T14:08:36;96686.59;;;24.51;31.78
22389;BME280;11362;48.102;11.620;2023-02-14T14:11:48;96684.59;;;24.48;31.74
22389;BME280;11362;48.102;11.620;2023-02-14T14:16:55;96680.59;;;24.39;32.20
22389;BME280;11362;48.102;11.620;2023-02-14T14:22:09;96683.75;;;24.37;32.02